sensor_id;sensor_type;location;lat;lon;timestamp;pressure;altitude;pressure_sealevel;temperature;humidity
54329;BME280;40710;51.120;13.136;2024-01-30T00:01:39;100826.59;;;7.31;46.91
54329;BME280;40710;51.120;13.136;2024-01-30T00:04:03;100828.88;;;7.51;47.08
54329;BME280;40710;51.120;13.136;2024-01-30T00:06:28;100829.63;;;7.04;47.50
54329;BME280;40710;51.120;13.136;2024-01-30T00:08:52;100828.44;;;7.25;47.77
54329;BME280;40710;51.120;13.136;2024-01-30T00:11:17;100828.25;;;7.35;47.90
54329;BME280;40710;51.120;13.136;2024-01-30T00:13:42;100831.25;;;7.12;48.13
54329;BME280;40710;51.120;13.136;2024-01-30T00:16:07;100836.38;;;6.56;49.02
54329;BME280;40710;51.120;13.136;2024-01-30T00:18:33;100847.25;;;6.21;50.00
54329;BME280;40710;51.120;13.136;2024-01-30T00:20:58;100843.91;;;6.08;50.64
54329;BME280;40710;51.120;13.136;2024-01-30T00:23:22;100841.81;;;6.38;50.25
54329;BME280;40710;51.120;13.136;2024-01-30T00:25:47;100830.53;;;6.37;49.79
54329;BME280;40710;51.120;13.136;2024-01-30T00:28:11;100828.50;;;6.59;49.28
54329;BME280;40710;51.120;13.136;2024-01-30T00:30:36;100818.22;;;6.49;49.67
54329;BME280;40710;51.120;13.136;2024-01-30T00:33:00;100827.03;;;6.40;49.82
54329;BME280;40710;51.120;13.136;2024-01-30T00:35:25;100814.44;;;7.27;48.05
54329;BME280;40710;51.120;13.136;2024-01-30T00:37:49;100803.97;;;7.27;47.78
54329;BME280;40710;51.120;13.136;2024-01-30T00:40:14;100824.63;;;6.88;48.83
54329;BME280;40710;51.120;13.136;2024-01-30T00:42:39;100814.19;;;7.43;47.60
54329;BME280;40710;51.120;13.136;2024-01-30T00:45:05;100817.88;;;6.73;48.57
54329;BME280;40710;51.120;13.136;2024-01-30T00:47:30;100811.16;;;7.16;48.27
54329;BME280;40710;51.120;13.136;2024-01-30T00:49:57;100811.59;;;6.85;48.99
54329;BME280;40710;51.120;13.136;2024-01-30T00:52:21;100814.38;;;6.73;49.60
54329;BME280;40710;51.120;13.136;2024-01-30T00:54:46;100820.34;;;6.16;50.57
54329;BME280;40710;51.120;13.136;2024-01-30T00:57:10;100815.44;;;6.61;50.03
54329;BME280;40710;51.120;13.136;2024-01-30T00:59:36;100822.81;;;6.27;50.93
54329;BME280;40710;51.120;13.136;2024-01-30T01:02:00;100817.19;;;5.83;51.72
54329;BME280;40710;51.120;13.136;2024-01-30T01:04:25;100815.88;;;6.25;51.51
54329;BME280;40710;51.120;13.136;2024-01-30T01:06:51;100819.53;;;6.09;51.72
54329;BME280;40710;51.120;13.136;2024-01-30T01:09:15;100824.03;;;5.95;52.45
54329;BME280;40710;51.120;13.136;2024-01-30T01:11:40;100824.44;;;5.48;53.05
54329;BME280;40710;51.120;13.136;2024-01-30T01:14:04;100818.25;;;5.62;53.41
54329;BME280;40710;51.120;13.136;2024-01-30T01:16:29;100819.28;;;5.47;53.66
54329;BME280;40710;51.120;13.136;2024-01-30T01:18:53;100810.41;;;5.63;53.34
54329;BME280;40710;51.120;13.136;2024-01-30T01:21:18;100816.22;;;5.96;52.55
54329;BME280;40710;51.120;13.136;2024-01-30T01:23:42;100815.50;;;5.79;53.32
54329;BME280;40710;51.120;13.136;2024-01-30T01:26:07;100820.53;;;5.99;52.26
54329;BME280;40710;51.120;13.136;2024-01-30T01:28:34;100820.06;;;5.55;53.51
54329;BME280;40710;51.120;13.136;2024-01-30T01:30:58;100819.78;;;5.84;53.16
54329;BME280;40710;51.120;13.136;2024-01-30T01:33:29;100820.13;;;5.51;53.72
54329;BME280;40710;51.120;13.136;2024-01-30T01:35:53;100812.00;;;5.80;53.15
54329;BME280;40710;51.120;13.136;2024-01-30T01:38:18;100819.81;;;5.81;53.29
54329;BME280;40710;51.120;13.136;2024-01-30T01:40:43;100813.47;;;6.07;52.39
54329;BME280;40710;51.120;13.136;2024-01-30T01:43:08;100813.53;;;5.99;53.15
54329;BME280;40710;51.120;13.136;2024-01-30T01:45:32;100817.03;;;6.00;53.11
54329;BME280;40710;51.120;13.136;2024-01-30T01:47:57;100809.06;;;6.12;52.04
54329;BME280;40710;51.120;13.136;2024-01-30T01:50:22;100796.75;;;6.23;52.06
54329;BME280;40710;51.120;13.136;2024-01-30T01:52:48;100799.59;;;6.03;52.92
54329;BME280;40710;51.120;13.136;2024-01-30T01:55:14;100800.94;;;5.53;53.16
54329;BME280;40710;51.120;13.136;2024-01-30T01:57:39;100804.88;;;5.99;53.30
54329;BME280;40710;51.120;13.136;2024-01-30T02:00:04;100805.19;;;5.68;53.69
54329;BME280;40710;51.120;13.136;2024-01-30T02:02:30;100796.56;;;5.55;53.61
54329;BME280;40710;51.120;13.136;2024-01-30T02:04:59;100797.50;;;5.53;53.24
54329;BME280;40710;51.120;13.136;2024-01-30T02:07:24;100799.84;;;5.80;53.35
54329;BME280;40710;51.120;13.136;2024-01-30T02:09:48;100794.06;;;6.31;52.38
54329;BME280;40710;51.120;13.136;2024-01-30T02:12:13;100790.81;;;6.77;50.73
54329;BME280;40710;51.120;13.136;2024-01-30T02:14:48;100790.09;;;5.98;52.50
54329;BME280;40710;51.120;13.136;2024-01-30T02:17:13;100795.41;;;5.85;52.26
54329;BME280;40710;51.120;13.136;2024-01-30T02:19:37;100792.63;;;6.05;52.65
54329;BME280;40710;51.120;13.136;2024-01-30T02:22:02;100798.88;;;5.87;53.03
54329;BME280;40710;51.120;13.136;2024-01-30T02:24:27;100790.38;;;5.70;53.68
54329;BME280;40710;51.120;13.136;2024-01-30T02:26:51;100798.41;;;5.47;53.27
54329;BME280;40710;51.120;13.136;2024-01-30T02:29:16;100791.81;;;5.99;52.85
54329;BME280;40710;51.120;13.136;2024-01-30T02:31:41;100783.63;;;6.31;52.13
54329;BME280;40710;51.120;13.136;2024-01-30T02:34:05;100784.91;;;5.92;52.90
54329;BME280;40710;51.120;13.136;2024-01-30T02:36:30;100783.88;;;6.08;52.76
54329;BME280;40710;51.120;13.136;2024-01-30T02:38:54;100784.38;;;5.57;54.00
54329;BME280;40710;51.120;13.136;2024-01-30T02:41:19;100792.84;;;5.81;53.89
54329;BME280;40710;51.120;13.136;2024-01-30T02:43:43;100782.44;;;5.81;53.47
54329;BME280;40710;51.120;13.136;2024-01-30T02:46:08;100782.63;;;6.40;52.70
54329;BME280;40710;51.120;13.136;2024-01-30T02:48:33;100782.97;;;6.12;53.52
54329;BME280;40710;51.120;13.136;2024-01-30T02:50:57;100778.34;;;6.33;52.88
54329;BME280;40710;51.120;13.136;2024-01-30T02:53:22;100776.91;;;6.10;51.83
54329;BME280;40710;51.120;13.136;2024-01-30T02:55:47;100784.19;;;5.77;54.16
54329;BME280;40710;51.120;13.136;2024-01-30T02:58:11;100780.78;;;5.71;53.14
54329;BME280;40710;51.120;13.136;2024-01-30T03:00:36;100788.06;;;5.36;54.15
54329;BME280;40710;51.120;13.136;2024-01-30T03:03:00;100784.22;;;5.76;53.79
54329;BME280;40710;51.120;13.136;2024-01-30T03:05:28;100785.19;;;5.67;53.87
54329;BME280;40710;51.120;13.136;2024-01-30T03:07:53;100779.25;;;5.49;54.47
54329;BME280;40710;51.120;13.136;2024-01-30T03:10:18;100777.13;;;5.87;54.36
54329;BME280;40710;51.120;13.136;2024-01-30T03:12:43;100772.81;;;5.84;53.55
54329;BME280;40710;51.120;13.136;2024-01-30T03:15:07;100774.41;;;6.01;53.49
54329;BME280;40710;51.120;13.136;2024-01-30T03:17:34;100768.00;;;6.28;52.32
54329;BME280;40710;51.120;13.136;2024-01-30T03:19:58;100769.50;;;5.72;53.28
54329;BME280;40710;51.120;13.136;2024-01-30T03:22:23;100774.84;;;5.58;54.65
54329;BME280;40710;51.120;13.136;2024-01-30T03:24:48;100783.75;;;5.35;55.60
54329;BME280;40710;51.120;13.136;2024-01-30T03:27:12;100775.41;;;5.87;54.18
54329;BME280;40710;51.120;13.136;2024-01-30T03:29:37;100769.50;;;5.72;54.76
54329;BME280;40710;51.120;13.136;2024-01-30T03:32:02;100766.06;;;5.68;54.42
54329;BME280;40710;51.120;13.136;2024-01-30T03:34:28;100769.44;;;5.73;54.20
54329;BME280;40710;51.120;13.136;2024-01-30T03:36:52;100754.34;;;6.04;53.35
54329;BME280;40710;51.120;13.136;2024-01-30T03:39:17;100758.59;;;6.13;52.66
54329;BME280;40710;51.120;13.136;2024-01-30T03:41:42;100767.50;;;5.94;52.98
54329;BME280;40710;51.120;13.136;2024-01-30T03:44:07;100770.78;;;6.11;53.29
54329;BME280;40710;51.120;13.136;2024-01-30T03:46:32;100763.31;;;6.50;52.08
54329;BME280;40710;51.120;13.136;2024-01-30T03:48:56;100761.00;;;6.30;52.42
54329;BME280;40710;51.120;13.136;2024-01-30T03:51:21;100747.84;;;6.95;50.34
54329;BME280;40710;51.120;13.136;2024-01-30T03:53:45;100754.25;;;6.76;50.91
54329;BME280;40710;51.120;13.136;2024-01-30T03:56:10;100759.38;;;6.20;52.67
54329;BME280;40710;51.120;13.136;2024-01-30T03:58:35;100760.16;;;6.27;52.11
54329;BME280;40710;51.120;13.136;2024-01-30T04:01:00;100760.22;;;6.20;52.90
54329;BME280;40710;51.120;13.136;2024-01-30T04:03:24;100759.84;;;6.51;52.00
54329;BME280;40710;51.120;13.136;2024-01-30T04:05:49;100749.91;;;6.11;53.02
54329;BME280;40710;51.120;13.136;2024-01-30T04:08:13;100760.34;;;6.13;52.57
54329;BME280;40710;51.120;13.136;2024-01-30T04:10:38;100750.97;;;5.96;53.69
54329;BME280;40710;51.120;13.136;2024-01-30T04:13:06;100748.22;;;6.09;53.12
54329;BME280;40710;51.120;13.136;2024-01-30T04:15:30;100753.47;;;6.05;53.60
54329;BME280;40710;51.120;13.136;2024-01-30T04:17:57;100752.06;;;5.75;53.86
54329;BME280;40710;51.120;13.136;2024-01-30T04:20:23;100753.50;;;6.02;53.38
54329;BME280;40710;51.120;13.136;2024-01-30T04:22:47;100751.69;;;6.09;53.27
54329;BME280;40710;51.120;13.136;2024-01-30T04:25:13;100753.63;;;5.88;54.28
54329;BME280;40710;51.120;13.136;2024-01-30T04:27:37;100751.81;;;6.00;53.65
54329;BME280;40710;51.120;13.136;2024-01-30T04:30:02;100748.72;;;5.61;54.44
54329;BME280;40710;51.120;13.136;2024-01-30T04:32:27;100754.94;;;6.27;55.23
54329;BME280;40710;51.120;13.136;2024-01-30T04:34:51;100752.66;;;6.02;53.98
54329;BME280;40710;51.120;13.136;2024-01-30T04:37:16;100750.00;;;6.05;54.26
54329;BME280;40710;51.120;13.136;2024-01-30T04:39:41;100750.19;;;5.86;54.52
54329;BME280;40710;51.120;13.136;2024-01-30T04:42:05;100742.22;;;6.02;53.85
54329;BME280;40710;51.120;13.136;2024-01-30T04:44:30;100745.22;;;5.62;54.11
54329;BME280;40710;51.120;13.136;2024-01-30T04:46:54;100754.44;;;5.97;54.63
54329;BME280;40710;51.120;13.136;2024-01-30T04:49:23;100751.38;;;5.56;54.75
54329;BME280;40710;51.120;13.136;2024-01-30T04:51:47;100751.53;;;5.39;55.53
54329;BME280;40710;51.120;13.136;2024-01-30T04:54:12;100744.09;;;5.89;54.38
54329;BME280;40710;51.120;13.136;2024-01-30T04:56:36;100738.34;;;6.31;53.49
54329;BME280;40710;51.120;13.136;2024-01-30T04:59:02;100738.66;;;6.08;54.65
54329;BME280;40710;51.120;13.136;2024-01-30T05:01:27;100741.09;;;5.41;55.30
54329;BME280;40710;51.120;13.136;2024-01-30T05:03:51;100750.13;;;5.01;56.49
54329;BME280;40710;51.120;13.136;2024-01-30T05:06:25;100745.72;;;5.08;56.63
54329;BME280;40710;51.120;13.136;2024-01-30T05:08:50;100745.06;;;4.83;57.42
54329;BME280;40710;51.120;13.136;2024-01-30T05:11:15;100744.22;;;4.81;56.85
54329;BME280;40710;51.120;13.136;2024-01-30T05:13:39;100749.56;;;4.59;58.41
54329;BME280;40710;51.120;13.136;2024-01-30T05:16:04;100745.09;;;4.75;57.86
54329;BME280;40710;51.120;13.136;2024-01-30T05:18:28;100727.94;;;5.53;55.61
54329;BME280;40710;51.120;13.136;2024-01-30T05:20:53;100721.78;;;5.60;56.12
54329;BME280;40710;51.120;13.136;2024-01-30T05:23:18;100726.50;;;5.23;56.11
54329;BME280;40710;51.120;13.136;2024-01-30T05:25:42;100730.19;;;4.97;57.11
54329;BME280;40710;51.120;13.136;2024-01-30T05:28:07;100732.78;;;4.99;56.88
54329;BME280;40710;51.120;13.136;2024-01-30T05:30:31;100724.53;;;5.46;56.48
54329;BME280;40710;51.120;13.136;2024-01-30T05:32:56;100733.22;;;5.47;56.38
54329;BME280;40710;51.120;13.136;2024-01-30T05:35:20;100731.63;;;5.30;56.39
54329;BME280;40710;51.120;13.136;2024-01-30T05:37:45;100735.09;;;5.31;56.96
54329;BME280;40710;51.120;13.136;2024-01-30T05:40:10;100725.19;;;5.65;55.56
54329;BME280;40710;51.120;13.136;2024-01-30T05:42:35;100721.66;;;5.71;55.49
54329;BME280;40710;51.120;13.136;2024-01-30T05:45:00;100731.06;;;5.84;55.56
54329;BME280;40710;51.120;13.136;2024-01-30T05:47:24;100735.63;;;5.65;54.98
54329;BME280;40710;51.120;13.136;2024-01-30T05:49:49;100727.53;;;5.90;54.82
54329;BME280;40710;51.120;13.136;2024-01-30T05:52:13;100731.72;;;5.23;56.21
54329;BME280;40710;51.120;13.136;2024-01-30T05:54:39;100740.88;;;5.61;56.15
54329;BME280;40710;51.120;13.136;2024-01-30T05:57:04;100727.75;;;5.72;55.19
54329;BME280;40710;51.120;13.136;2024-01-30T05:59:28;100735.75;;;5.55;55.61
54329;BME280;40710;51.120;13.136;2024-01-30T06:01:53;100733.56;;;5.94;55.02
54329;BME280;40710;51.120;13.136;2024-01-30T06:04:18;100726.00;;;5.71;54.75
54329;BME280;40710;51.120;13.136;2024-01-30T06:06:42;100730.22;;;5.84;55.42
54329;BME280;40710;51.120;13.136;2024-01-30T06:09:07;100725.44;;;6.21;53.48
54329;BME280;40710;51.120;13.136;2024-01-30T06:11:34;100727.22;;;6.16;54.44
54329;BME280;40710;51.120;13.136;2024-01-30T06:13:59;100718.66;;;6.06;54.08
54329;BME280;40710;51.120;13.136;2024-01-30T06:16:24;100725.69;;;6.01;53.81
54329;BME280;40710;51.120;13.136;2024-01-30T06:18:48;100727.78;;;5.70;55.27
54329;BME280;40710;51.120;13.136;2024-01-30T06:21:13;100731.34;;;5.60;55.47
54329;BME280;40710;51.120;13.136;2024-01-30T06:23:37;100728.63;;;5.69;54.99
54329;BME280;40710;51.120;13.136;2024-01-30T06:26:02;100739.47;;;5.29;56.56
54329;BME280;40710;51.120;13.136;2024-01-30T06:28:26;100734.13;;;5.43;56.38
54329;BME280;40710;51.120;13.136;2024-01-30T06:30:51;100731.22;;;5.72;55.69
54329;BME280;40710;51.120;13.136;2024-01-30T06:33:15;100723.66;;;5.46;56.23
54329;BME280;40710;51.120;13.136;2024-01-30T06:35:40;100720.00;;;5.62;55.87
54329;BME280;40710;51.120;13.136;2024-01-30T06:38:05;100723.56;;;5.55;56.46
54329;BME280;40710;51.120;13.136;2024-01-30T06:40:29;100721.75;;;5.63;56.21
54329;BME280;40710;51.120;13.136;2024-01-30T06:42:54;100716.03;;;6.08;54.82
54329;BME280;40710;51.120;13.136;2024-01-30T06:45:18;100719.78;;;5.84;55.40
54329;BME280;40710;51.120;13.136;2024-01-30T06:47:43;100716.41;;;6.44;53.11
54329;BME280;40710;51.120;13.136;2024-01-30T06:50:08;100715.47;;;6.48;52.83
54329;BME280;40710;51.120;13.136;2024-01-30T06:52:32;100722.97;;;6.11;54.45
54329;BME280;40710;51.120;13.136;2024-01-30T06:54:57;100718.97;;;6.49;53.06
54329;BME280;40710;51.120;13.136;2024-01-30T06:57:21;100715.22;;;6.03;54.31
54329;BME280;40710;51.120;13.136;2024-01-30T06:59:46;100711.16;;;5.77;55.32
54329;BME280;40710;51.120;13.136;2024-01-30T07:02:11;100718.19;;;5.72;55.51
54329;BME280;40710;51.120;13.136;2024-01-30T07:04:36;100735.22;;;6.04;55.50
54329;BME280;40710;51.120;13.136;2024-01-30T07:07:05;100731.03;;;6.57;53.67
54329;BME280;40710;51.120;13.136;2024-01-30T07:09:30;100728.28;;;6.67;53.30
54329;BME280;40710;51.120;13.136;2024-01-30T07:11:54;100726.06;;;6.96;52.07
54329;BME280;40710;51.120;13.136;2024-01-30T07:14:19;100727.09;;;6.27;53.83
54329;BME280;40710;51.120;13.136;2024-01-30T07:16:44;100726.88;;;7.02;51.96
54329;BME280;40710;51.120;13.136;2024-01-30T07:19:08;100744.66;;;6.76;52.33
54329;BME280;40710;51.120;13.136;2024-01-30T07:21:34;100741.63;;;7.04;52.28
54329;BME280;40710;51.120;13.136;2024-01-30T07:23:58;100735.03;;;7.33;51.24
54329;BME280;40710;51.120;13.136;2024-01-30T07:26:23;100740.97;;;6.90;52.18
54329;BME280;40710;51.120;13.136;2024-01-30T07:28:48;100746.22;;;6.88;52.42
54329;BME280;40710;51.120;13.136;2024-01-30T07:31:14;100735.06;;;7.78;50.23
54329;BME280;40710;51.120;13.136;2024-01-30T07:33:38;100748.75;;;6.94;52.32
54329;BME280;40710;51.120;13.136;2024-01-30T07:36:03;100743.53;;;7.44;54.24
54329;BME280;40710;51.120;13.136;2024-01-30T07:38:28;100732.03;;;8.00;50.61
54329;BME280;40710;51.120;13.136;2024-01-30T07:40:53;100727.72;;;7.95;50.17
54329;BME280;40710;51.120;13.136;2024-01-30T07:43:17;100730.44;;;7.92;50.18
54329;BME280;40710;51.120;13.136;2024-01-30T07:45:42;100729.00;;;7.29;51.11
54329;BME280;40710;51.120;13.136;2024-01-30T07:48:06;100740.50;;;7.67;50.35
54329;BME280;40710;51.120;13.136;2024-01-30T07:50:31;100731.13;;;7.55;49.92
54329;BME280;40710;51.120;13.136;2024-01-30T07:52:56;100741.34;;;7.21;51.09
54329;BME280;40710;51.120;13.136;2024-01-30T07:55:21;100739.88;;;7.54;51.53
54329;BME280;40710;51.120;13.136;2024-01-30T07:57:52;100745.00;;;7.11;51.01
54329;BME280;40710;51.120;13.136;2024-01-30T08:00:17;100726.28;;;7.81;50.79
54329;BME280;40710;51.120;13.136;2024-01-30T08:02:41;100723.66;;;7.82;49.70
54329;BME280;40710;51.120;13.136;2024-01-30T08:05:06;100717.44;;;8.28;48.00
54329;BME280;40710;51.120;13.136;2024-01-30T08:07:31;100719.31;;;8.22;48.89
54329;BME280;40710;51.120;13.136;2024-01-30T08:09:55;100722.06;;;8.17;47.72
54329;BME280;40710;51.120;13.136;2024-01-30T08:12:20;100716.22;;;8.84;47.31
54329;BME280;40710;51.120;13.136;2024-01-30T08:14:45;100712.06;;;7.94;47.96
54329;BME280;40710;51.120;13.136;2024-01-30T08:17:09;100707.38;;;8.10;48.08
54329;BME280;40710;51.120;13.136;2024-01-30T08:19:34;100704.69;;;8.11;47.60
54329;BME280;40710;51.120;13.136;2024-01-30T08:21:58;100707.72;;;7.93;48.10
54329;BME280;40710;51.120;13.136;2024-01-30T08:24:23;100713.84;;;7.92;47.87
54329;BME280;40710;51.120;13.136;2024-01-30T08:26:47;100702.84;;;8.17;47.38
54329;BME280;40710;51.120;13.136;2024-01-30T08:29:12;100701.41;;;8.81;46.57
54329;BME280;40710;51.120;13.136;2024-01-30T08:31:36;100706.34;;;8.58;46.76
54329;BME280;40710;51.120;13.136;2024-01-30T08:34:01;100694.50;;;9.46;45.37
54329;BME280;40710;51.120;13.136;2024-01-30T08:36:25;100698.25;;;9.69;44.58
54329;BME280;40710;51.120;13.136;2024-01-30T08:38:50;100703.53;;;9.98;43.37
54329;BME280;40710;51.120;13.136;2024-01-30T08:41:15;100685.84;;;10.35;42.95
54329;BME280;40710;51.120;13.136;2024-01-30T08:43:39;100698.00;;;9.78;44.17
54329;BME280;40710;51.120;13.136;2024-01-30T08:46:04;100698.09;;;10.64;42.35
54329;BME280;40710;51.120;13.136;2024-01-30T08:48:28;100689.69;;;10.23;42.82
54329;BME280;40710;51.120;13.136;2024-01-30T08:50:53;100685.34;;;10.78;41.97
54329;BME280;40710;51.120;13.136;2024-01-30T08:53:18;100674.88;;;11.54;40.17
54329;BME280;40710;51.120;13.136;2024-01-30T08:55:43;100684.03;;;11.93;40.10
54329;BME280;40710;51.120;13.136;2024-01-30T08:58:07;100689.44;;;10.87;41.28
54329;BME280;40710;51.120;13.136;2024-01-30T09:00:32;100680.41;;;11.21;40.85
54329;BME280;40710;51.120;13.136;2024-01-30T09:02:56;100685.59;;;11.73;40.18
54329;BME280;40710;51.120;13.136;2024-01-30T09:05:21;100681.88;;;11.79;41.00
54329;BME280;40710;51.120;13.136;2024-01-30T09:07:46;100676.19;;;12.59;39.06
54329;BME280;40710;51.120;13.136;2024-01-30T09:10:11;100678.81;;;12.37;39.17
54329;BME280;40710;51.120;13.136;2024-01-30T09:12:35;100669.69;;;12.67;38.38
54329;BME280;40710;51.120;13.136;2024-01-30T09:15:00;100677.59;;;12.67;38.41
54329;BME280;40710;51.120;13.136;2024-01-30T09:17:24;100686.53;;;11.70;39.86
54329;BME280;40710;51.120;13.136;2024-01-30T09:19:49;100682.72;;;11.79;40.19
54329;BME280;40710;51.120;13.136;2024-01-30T09:22:14;100677.31;;;12.52;38.51
54329;BME280;40710;51.120;13.136;2024-01-30T09:24:38;100671.50;;;12.21;38.72
54329;BME280;40710;51.120;13.136;2024-01-30T09:27:03;100655.44;;;12.72;38.25
54329;BME280;40710;51.120;13.136;2024-01-30T09:29:27;100662.47;;;13.14;37.79
54329;BME280;40710;51.120;13.136;2024-01-30T09:31:52;100670.25;;;12.96;37.92
54329;BME280;40710;51.120;13.136;2024-01-30T09:34:16;100667.28;;;13.24;37.30
54329;BME280;40710;51.120;13.136;2024-01-30T09:36:41;100658.06;;;13.35;38.13
54329;BME280;40710;51.120;13.136;2024-01-30T09:39:06;100667.06;;;13.09;37.96
54329;BME280;40710;51.120;13.136;2024-01-30T09:41:32;100665.44;;;13.06;37.54
54329;BME280;40710;51.120;13.136;2024-01-30T09:43:57;100666.44;;;14.03;36.14
54329;BME280;40710;51.120;13.136;2024-01-30T09:46:26;100660.09;;;13.49;36.70
54329;BME280;40710;51.120;13.136;2024-01-30T09:48:53;100673.22;;;13.90;36.77
54329;BME280;40710;51.120;13.136;2024-01-30T09:51:20;100652.47;;;14.74;34.78
54329;BME280;40710;51.120;13.136;2024-01-30T09:53:45;100658.22;;;13.90;35.76
54329;BME280;40710;51.120;13.136;2024-01-30T09:56:10;100664.75;;;14.38;34.97
54329;BME280;40710;51.120;13.136;2024-01-30T09:58:35;100667.09;;;13.29;37.16
54329;BME280;40710;51.120;13.136;2024-01-30T10:01:00;100657.63;;;14.94;35.02
54329;BME280;40710;51.120;13.136;2024-01-30T10:03:24;100663.97;;;13.79;36.42
54329;BME280;40710;51.120;13.136;2024-01-30T10:05:52;100661.66;;;13.92;36.16
54329;BME280;40710;51.120;13.136;2024-01-30T10:08:17;100655.16;;;13.80;36.73
54329;BME280;40710;51.120;13.136;2024-01-30T10:10:46;100648.84;;;14.57;35.52
54329;BME280;40710;51.120;13.136;2024-01-30T10:13:10;100649.28;;;14.31;35.54
54329;BME280;40710;51.120;13.136;2024-01-30T10:15:38;100649.22;;;14.32;36.29
54329;BME280;40710;51.120;13.136;2024-01-30T10:18:03;100633.19;;;14.72;35.34
54329;BME280;40710;51.120;13.136;2024-01-30T10:20:27;100634.78;;;14.57;35.48
54329;BME280;40710;51.120;13.136;2024-01-30T10:22:52;100626.97;;;15.08;34.66
54329;BME280;40710;51.120;13.136;2024-01-30T10:25:17;100621.69;;;15.75;33.74
54329;BME280;40710;51.120;13.136;2024-01-30T10:27:42;100621.06;;;15.36;33.79
54329;BME280;40710;51.120;13.136;2024-01-30T10:30:07;100622.72;;;15.21;33.61
54329;BME280;40710;51.120;13.136;2024-01-30T10:32:32;100620.97;;;15.71;33.12
54329;BME280;40710;51.120;13.136;2024-01-30T10:34:56;100616.63;;;15.37;33.57
54329;BME280;40710;51.120;13.136;2024-01-30T10:37:25;100606.84;;;16.20;32.27
54329;BME280;40710;51.120;13.136;2024-01-30T10:39:53;100613.31;;;15.82;32.50
54329;BME280;40710;51.120;13.136;2024-01-30T10:42:20;100608.97;;;15.81;32.49
54329;BME280;40710;51.120;13.136;2024-01-30T10:45:06;100596.88;;;16.70;31.57
54329;BME280;40710;51.120;13.136;2024-01-30T10:47:35;100603.66;;;16.13;32.27
54329;BME280;40710;51.120;13.136;2024-01-30T10:50:03;100601.03;;;16.90;31.32
54329;BME280;40710;51.120;13.136;2024-01-30T10:52:32;100606.97;;;15.69;32.64
54329;BME280;40710;51.120;13.136;2024-01-30T10:54:56;100603.34;;;15.54;33.14
54329;BME280;40710;51.120;13.136;2024-01-30T10:57:25;100583.41;;;16.89;31.53
54329;BME280;40710;51.120;13.136;2024-01-30T10:59:52;100600.72;;;15.37;33.17
54329;BME280;40710;51.120;13.136;2024-01-30T11:02:19;100593.16;;;15.80;33.10
54329;BME280;40710;51.120;13.136;2024-01-30T11:04:45;100590.72;;;15.26;33.48
54329;BME280;40710;51.120;13.136;2024-01-30T11:07:17;100600.50;;;14.90;33.86
54329;BME280;40710;51.120;13.136;2024-01-30T11:09:51;100588.06;;;14.75;34.24
54329;BME280;40710;51.120;13.136;2024-01-30T11:12:21;100581.16;;;15.06;33.91
54329;BME280;40710;51.120;13.136;2024-01-30T11:14:46;100583.00;;;15.21;34.11
54329;BME280;40710;51.120;13.136;2024-01-30T11:17:10;100578.50;;;15.73;33.05
54329;BME280;40710;51.120;13.136;2024-01-30T11:19:36;100573.63;;;15.97;32.73
54329;BME280;40710;51.120;13.136;2024-01-30T11:22:01;100570.50;;;16.97;31.84
54329;BME280;40710;51.120;13.136;2024-01-30T11:24:26;100570.00;;;16.30;32.13
54329;BME280;40710;51.120;13.136;2024-01-30T11:26:58;100563.56;;;17.66;30.86
54329;BME280;40710;51.120;13.136;2024-01-30T11:29:27;100563.06;;;17.74;30.93
54329;BME280;40710;51.120;13.136;2024-01-30T11:31:56;100574.97;;;16.96;32.18
54329;BME280;40710;51.120;13.136;2024-01-30T11:34:21;100575.94;;;16.49;32.35
54329;BME280;40710;51.120;13.136;2024-01-30T11:36:52;100571.28;;;17.13;32.40
54329;BME280;40710;51.120;13.136;2024-01-30T11:39:19;100570.63;;;17.67;31.90
54329;BME280;40710;51.120;13.136;2024-01-30T11:41:45;100574.91;;;17.41;31.95
54329;BME280;40710;51.120;13.136;2024-01-30T11:44:10;100592.16;;;15.65;34.27
54329;BME280;40710;51.120;13.136;2024-01-30T11:46:34;100573.38;;;17.37;31.94
54329;BME280;40710;51.120;13.136;2024-01-30T11:48:59;100581.06;;;16.22;33.90
54329;BME280;40710;51.120;13.136;2024-01-30T11:51:24;100579.13;;;16.86;33.41
54329;BME280;40710;51.120;13.136;2024-01-30T11:53:51;100580.16;;;16.37;34.15
54329;BME280;40710;51.120;13.136;2024-01-30T11:56:16;100576.97;;;16.32;34.37
54329;BME280;40710;51.120;13.136;2024-01-30T11:58:42;100581.00;;;16.23;35.13
54329;BME280;40710;51.120;13.136;2024-01-30T12:01:08;100580.38;;;15.86;35.92
54329;BME280;40710;51.120;13.136;2024-01-30T12:03:32;100573.50;;;16.76;34.31
54329;BME280;40710;51.120;13.136;2024-01-30T12:05:57;100572.88;;;16.57;34.37
54329;BME280;40710;51.120;13.136;2024-01-30T12:08:23;100576.03;;;16.48;34.86
54329;BME280;40710;51.120;13.136;2024-01-30T12:10:55;100572.78;;;16.12;34.90
54329;BME280;40710;51.120;13.136;2024-01-30T12:13:20;100565.88;;;16.40;35.34
54329;BME280;40710;51.120;13.136;2024-01-30T12:15:45;100558.53;;;16.90;34.46
54329;BME280;40710;51.120;13.136;2024-01-30T12:18:10;100550.78;;;17.58;34.26
54329;BME280;40710;51.120;13.136;2024-01-30T12:20:34;100559.88;;;17.54;33.95
54329;BME280;40710;51.120;13.136;2024-01-30T12:22:59;100561.91;;;16.77;35.42
54329;BME280;40710;51.120;13.136;2024-01-30T12:25:23;100553.97;;;17.78;33.76
54329;BME280;40710;51.120;13.136;2024-01-30T12:27:49;100555.53;;;17.39;34.65
54329;BME280;40710;51.120;13.136;2024-01-30T12:30:14;100555.06;;;17.04;35.61
54329;BME280;40710;51.120;13.136;2024-01-30T12:32:43;100552.50;;;17.31;35.55
54329;BME280;40710;51.120;13.136;2024-01-30T12:35:12;100550.19;;;17.68;35.20
54329;BME280;40710;51.120;13.136;2024-01-30T12:37:37;100539.13;;;18.03;35.45